Challenge PACA Vidauban (83) - B

Date : 11/03/2012
Distance : 7,600 km

Place Nom Licence Catégorie Club Temps min/km CN à J-60 Points Différence Nouveau CN
1 DELENNE Pierre 1593 H45 1307PR 0:50:48 6'41 6669 6771 +102 6744
2 ELIAS Pierre 12231 H45 1307PR 0:51:39 6'47 6919 6660 -259 6930
3 REMOUET Michel 11919 H45 8311AZ 0:56:26 7'25 6101 6095 -6 6160
4 CHIRON Vincent 8119 H40 8302AZ 0:57:56 7'37 5608 5937 +329 5710
5 ROMEN Bjorn Helge 25143 H45 1307PR 0:59:42 7'51 5110 5762 +652 5217
6 DELENNE Adrien 10384 H16 1307PR 1:01:32 8'05 7203 5590 -1613 7203
7 BOURGES Rene-Yves 5431 H60 1303PR 1:08:22 8'59 5289 5031 -258 5289
8 BOURDARIE Pascal 19544 H40 1303PR 1:09:54 9'11 4567 4921 +354 4607
9 ANGLARET Philippe 12837 H45 8311AZ 1:10:36 9'17 3960 4872 +912 4287
10 SANCHEZ SEGURA Manuel 19712 H40 0404PR 1:15:26 9'55 4851 4560 -291 4851
11 AUBE Thierry 4983 H45 3005LR 1:18:37 10'20 4038 4375 +337 4128
12 RICHAUD A-Sophie 4158 D21 8302AZ 1:20:04 10'32 4277 4296 +19 4336
13 BEYLY Laurent 10834 H40 1307PR 1:20:59 10'39 2892 4247 +1355 2892
14 GUYON Eric 22657 H40 1311PR 1:21:48 10'45 2932 4205 +1273 2932
15 COLIN Jean-Christophe 20855 H40 1311PR 1:21:50 10'46 4814 4203 -611 4814
16 MARI Olivier 16056 H40 0615AZ 1:23:12 10'56 4159 4134 -25 4170
17 PIBAROT Steve 7256 H45 0615AZ 1:23:45 11'01 4538 4107 -431 4538
18 BERRIEN Olivier 16590 H40 1303PR 1:24:13 11'04 4227 4084 -143 4251
19 CHOTARD Philippe 24505 H40 0621AZ 1:24:16 11'05 3309 4082 +773 3500
20 LAVILLE Xavier 18410 H45 1307PR 1:24:26 11'06 4683 4074 -609 4683
21 MULDER Alexander 20559 H18 0621AZ 1:24:27 11'06 2386 4073 +1687 2386
22 GARNIER Franck 10668 H45 8318AZ 1:24:32 11'07 3488 4069 +581 3490
23 GUETIN Francois 11332 H45 0615AZ 1:26:58 11'26 4392 3955 -437 4314
24 MONCLARD Jerome 16714 H45 8405PR 1:28:56 11'42 4924 3868 -1056 4924
25 AZOCAR Arnaud 11174 H50 0615AZ 1:29:53 11'49 3584 3827 +243 3584
26 BARRAL J-Luc 14955 H45 1303PR 1:30:00 11'50 4286 3822 -464 4286
27 DESPLANQUES Denis 20562 H50 0615AZ 1:30:59 11'58 4068 3781 -287 3967
28 PICAZO Sophie 17789 D45 8405PR 1:31:52 12'05 5181 3744 -1437 5181
29 GIMENEZ Patrick 20485 H45 1303PR 1:34:13 12'23 3726 3651 -75 3751
30 GIACCHI Stephanie 12835 D35 8311AZ 1:36:17 12'40 3390 3572 +182 3552
31 MONCLARD Guillaume 14856 H18 8405PR 1:39:39 13'06 4045 3452 -593 4035
32 AUTEM Olivier 24079 H45 1307PR 1:39:47 13'07 4115 3447 -668 4115
33 SVEDEVALL Bo 25788 H45 1307PR 1:39:51 13'08 3445 0
34 PICAZO J-Jacques 17790 H45 8405PR 1:43:37 13'38 4386 3320 -1066 4386
35 BARRAL Anne 14953 D35 1303PR 1:45:10 13'50 3448 3271 -177 3377
36 LANGEARD Vincent 2585 H45 0615AZ 1:47:02 14'05 4459 3214 -1245 4459
37 DEBIOL Philippe 15264 H45 0615AZ 1:48:46 14'18 2674 3162 +488 2674
38 DEPERO Jean -luc 24032 H45 8311AZ 1:49:22 14'23 3077 3145 +68 3108
39 MACHEREY Gilles 7524 H55 8405PR 1:50:05 14'29 4727 3125 -1602 4688
40 AMROUCHE Didier 22653 H40 0615AZ 1:55:40 15'13 2812 2974 +162 2793
41 CHAPILLON Aurelie 22674 D35 0615AZ 1:55:48 15'14 2970 0
42 SWINDELL Fraser 20506 H18 0621AZ 2:03:16 16'13 2640 2790 +150 2692
43 ESCURET Alexandre 23707 H20 1307PR 2:05:34 16'31 2682 2739 +57 2855
44 AVARGUES Jean-Philippe 19668 H45 1303PR 2:08:13 16'52 1862 2683 +821 2192
45 ZAHN J-Marie 17882 H45 0404PR 2:49:10 22'15 3433 2033 -1400 3433
46 PRIOU Eric 94 H45 8318AZ 2:53:12 22'47 0 1986 1946
SINICO Séverine 16934 D35 1311PR pm None 3436 0 3436
MONJAUZE Marion 3871 D21 8311AZ pm None 4365 0 4365
FABRE Theo 23706 H18 1307PR pm None 2427 0 2619
DEMICHELIS Alixia 6412 D21 0615AZ pm None 3072 0 3004
GREEN Liam 23316 H18 0621AZ pm None 0 0 0
DELI Mathilde 1156 D20 8311AZ pm None 3483 0 3483
KROL Helene 13799 D21 1307PR pm None 4716 0 4716
BOURGEOIS Gilles 17250 H45 0615AZ pm None 2737 0 2794